Time;durP1;ratioP1;P1;durP2;ratioP2;P2;SDS_P1;SDS_P2;PMS_P1;PMS_P2;Temp;Humidity;BMP_temperature;BMP_pressure;BME280_temperature;BME280_humidity;BME280_pressure;Samples;Min_cycle;Max_cycle;Signal;HPM_P1;HPM_P2
2021/04/16 00:01:51;;;;;;;6.45;3.85;;;0.20;99.90;;;;;;5087688;28;20219;-75
2021/04/16 00:04:17;;;;;;;5.47;4.28;;;0.20;99.90;;;;;;5087944;28;20674;-75
2021/04/16 00:06:45;;;;;;;4.85;4.10;;;0.20;99.90;;;;;;5088698;28;20607;-74
2021/04/16 00:09:11;;;;;;;5.63;3.90;;;0.20;99.90;;;;;;5088751;28;20642;-75
2021/04/16 00:11:37;;;;;;;5.80;3.97;;;0.20;99.90;;;;;;5087897;28;20195;-75
2021/04/16 00:14:03;;;;;;;6.22;4.30;;;0.10;99.90;;;;;;5088647;28;20211;-75
2021/04/16 00:16:31;;;;;;;4.00;3.47;;;0.10;99.90;;;;;;5088175;28;20204;-75
2021/04/16 00:18:57;;;;;;;6.45;4.55;;;0.10;99.90;;;;;;5088689;28;20228;-75
2021/04/16 00:21:25;;;;;;;5.65;4.35;;;0.10;99.90;;;;;;5088095;28;20215;-75
2021/04/16 00:23:52;;;;;;;4.20;3.30;;;0.10;99.90;;;;;;5088116;28;20203;-74
2021/04/16 00:26:19;;;;;;;3.80;3.45;;;0.10;99.90;;;;;;5088906;28;20591;-75
2021/04/16 00:28:45;;;;;;;5.13;3.85;;;0.00;99.90;;;;;;5088725;28;20246;-75
2021/04/16 00:31:16;;;;;;;6.93;4.40;;;0.00;99.90;;;;;;5087979;28;20196;-75
2021/04/16 00:33:43;;;;;;;5.72;4.15;;;0.00;99.90;;;;;;5088365;28;20211;-75
2021/04/16 00:36:10;;;;;;;4.90;4.00;;;-0.10;99.90;;;;;;5088205;28;20253;-74
2021/04/16 00:38:37;;;;;;;5.30;3.90;;;-0.10;99.90;;;;;;5088520;28;20224;-75
2021/04/16 00:41:08;;;;;;;5.22;3.22;;;-0.10;99.90;;;;;;5087267;28;20231;-74
2021/04/16 00:43:36;;;;;;;4.15;3.50;;;-0.10;99.90;;;;;;5088614;28;20200;-74
2021/04/16 00:46:18;;;;;;;6.30;3.67;;;-0.10;99.90;;;;;;5088070;28;20257;-74
2021/04/16 00:48:49;;;;;;;4.10;3.63;;;-0.20;99.90;;;;;;5087887;28;20230;-74
2021/04/16 00:51:20;;;;;;;5.97;4.00;;;-0.20;99.90;;;;;;5087653;28;20662;-74
2021/04/16 00:53:47;;;;;;;6.20;3.60;;;-0.20;99.90;;;;;;5087377;28;20203;-74
2021/04/16 00:56:15;;;;;;;7.15;3.55;;;-0.20;99.90;;;;;;5088401;28;20211;-74
2021/04/16 00:58:42;;;;;;;5.30;3.85;;;-0.20;99.90;;;;;;5087938;28;20628;-74
2021/04/16 01:01:09;;;;;;;6.07;3.38;;;-0.20;99.90;;;;;;5088094;28;20294;-74
2021/04/16 01:03:35;;;;;;;6.90;3.70;;;-0.30;99.90;;;;;;5091904;28;20237;-74
2021/04/16 01:06:05;;;;;;;4.50;3.55;;;-0.40;99.90;;;;;;5091133;28;20207;-74
2021/04/16 01:08:32;;;;;;;4.53;3.85;;;-0.40;99.90;;;;;;5092019;28;20762;-74
2021/04/16 01:10:58;;;;;;;7.03;3.72;;;-0.40;99.90;;;;;;5090458;28;20199;-74
2021/04/16 01:13:27;;;;;;;4.75;3.83;;;-0.40;99.90;;;;;;5091649;28;20694;-74
2021/04/16 01:15:57;;;;;;;5.90;4.18;;;-0.50;99.90;;;;;;5091283;28;20202;-74
2021/04/16 01:18:25;;;;;;;4.45;3.63;;;-0.50;99.90;;;;;;5090986;28;20314;-74
2021/04/16 01:20:54;;;;;;;4.95;4.20;;;-0.50;99.90;;;;;;5090484;28;20231;-74
2021/04/16 01:23:27;;;;;;;6.20;4.00;;;-0.50;99.90;;;;;;5091061;28;20435;-74
2021/04/16 01:25:56;;;;;;;4.10;3.70;;;-0.50;99.90;;;;;;5091374;28;20575;-74
2021/04/16 01:28:23;;;;;;;4.30;3.90;;;-0.50;99.90;;;;;;5091342;28;20706;-74
2021/04/16 01:30:56;;;;;;;5.55;3.63;;;-0.40;99.90;;;;;;5090128;28;20226;-74
2021/04/16 01:33:22;;;;;;;3.90;3.10;;;-0.50;99.90;;;;;;5090861;28;20686;-74
2021/04/16 01:35:49;;;;;;;6.03;3.08;;;-0.40;99.90;;;;;;5090699;28;20211;-74
2021/04/16 01:38:16;;;;;;;4.25;3.85;;;-0.40;99.90;;;;;;5091066;28;20513;-74
2021/04/16 01:40:42;;;;;;;4.03;3.63;;;-0.50;99.90;;;;;;5090159;28;20223;-74
2021/04/16 01:43:22;;;;;;;4.05;3.50;;;-0.50;99.90;;;;;;5090054;28;20209;-74
2021/04/16 01:45:49;;;;;;;6.53;3.65;;;-0.60;99.90;;;;;;5090663;28;20200;-74
2021/04/16 01:48:15;;;;;;;4.47;3.63;;;-0.60;99.90;;;;;;5090586;28;20228;-74
2021/04/16 01:50:41;;;;;;;3.65;2.80;;;-0.60;99.90;;;;;;5090168;28;20204;-74
2021/04/16 01:53:07;;;;;;;4.25;3.50;;;-0.60;99.90;;;;;;5090382;28;20357;-73
2021/04/16 01:55:34;;;;;;;5.93;3.20;;;-0.60;99.90;;;;;;5090007;28;20636;-74
2021/04/16 01:58:00;;;;;;;4.30;3.60;;;-0.60;99.90;;;;;;5090299;28;20227;-74
2021/04/16 02:00:32;;;;;;;3.78;3.17;;;-0.70;99.90;;;;;;5089307;28;20215;-74
2021/04/16 02:02:59;;;;;;;4.82;3.78;;;-0.70;99.90;;;;;;5090040;28;20637;-74
2021/04/16 02:05:26;;;;;;;4.78;3.50;;;-0.70;99.90;;;;;;5090496;28;20203;-74
2021/04/16 02:07:52;;;;;;;4.22;3.08;;;-0.70;99.90;;;;;;5089806;28;20210;-74
2021/04/16 02:10:19;;;;;;;5.18;3.47;;;-0.80;99.90;;;;;;5089733;28;20208;-74
2021/04/16 02:12:45;;;;;;;6.20;3.92;;;-0.80;99.90;;;;;;5088640;28;20200;-74
2021/04/16 02:15:13;;;;;;;4.13;3.70;;;-0.80;99.90;;;;;;5090118;28;20226;-74
2021/04/16 02:17:40;;;;;;;4.43;4.03;;;-0.80;99.90;;;;;;5089843;28;20210;-74
2021/04/16 02:20:10;;;;;;;4.95;3.55;;;-0.80;99.90;;;;;;5089813;28;20611;-74
2021/04/16 02:22:37;;;;;;;4.50;4.07;;;-0.90;99.90;;;;;;5089881;28;20230;-74
2021/04/16 02:25:05;;;;;;;4.07;3.60;;;-0.80;99.90;;;;;;5090346;28;20210;-74
2021/04/16 02:27:31;;;;;;;6.95;4.10;;;-0.90;99.90;;;;;;5089667;28;20199;-74
2021/04/16 02:29:58;;;;;;;3.92;3.50;;;-0.90;99.90;;;;;;5089765;28;20651;-74
2021/04/16 02:32:24;;;;;;;3.58;3.28;;;-1.00;99.90;;;;;;5089176;28;20577;-74
2021/04/16 02:34:51;;;;;;;4.72;3.78;;;-1.00;99.90;;;;;;5089547;28;20250;-74
2021/04/16 02:37:22;;;;;;;6.80;3.85;;;-1.00;99.90;;;;;;5089976;28;20253;-74
2021/04/16 02:39:49;;;;;;;4.50;3.90;;;-1.00;99.90;;;;;;5089338;28;20223;-75
2021/04/16 02:42:15;;;;;;;5.80;3.92;;;-1.00;99.90;;;;;;5089032;28;20230;-74
2021/04/16 02:44:42;;;;;;;3.97;3.38;;;-1.00;99.90;;;;;;5089467;28;20257;-73
2021/04/16 02:47:09;;;;;;;5.85;3.78;;;-1.00;99.90;;;;;;5089538;28;20242;-74
2021/04/16 02:49:36;;;;;;;4.30;3.78;;;-1.00;99.90;;;;;;5089756;28;20246;-74
2021/04/16 02:52:04;;;;;;;3.92;3.30;;;-1.00;99.90;;;;;;5088599;28;20678;-74
2021/04/16 02:54:30;;;;;;;4.40;3.45;;;-1.00;99.90;;;;;;5089482;28;20249;-74
2021/04/16 02:56:57;;;;;;;5.22;3.45;;;-1.10;99.90;;;;;;5089101;28;20210;-74
2021/04/16 02:59:24;;;;;;;4.07;3.42;;;-1.10;99.90;;;;;;5089322;28;20707;-74
2021/04/16 03:01:51;;;;;;;6.80;4.00;;;-1.10;99.90;;;;;;5088317;28;20279;-74
2021/04/16 03:04:17;;;;;;;3.40;3.10;;;-1.20;99.90;;;;;;5089089;28;20204;-74
2021/04/16 03:06:43;;;;;;;5.57;4.15;;;-1.20;99.90;;;;;;5089259;28;20257;-74
2021/04/16 03:09:11;;;;;;;7.82;4.10;;;-1.20;99.90;;;;;;5089061;28;20220;-74
2021/04/16 03:11:37;;;;;;;6.72;3.88;;;-1.10;99.90;;;;;;5088246;28;20543;-74
2021/04/16 03:14:04;;;;;;;6.03;4.30;;;-1.10;99.90;;;;;;5088574;28;20208;-74
2021/04/16 03:16:31;;;;;;;4.85;3.63;;;-1.20;99.90;;;;;;5088889;28;20667;-74
2021/04/16 03:18:59;;;;;;;5.10;3.50;;;-1.20;99.90;;;;;;5088821;28;20741;-73
2021/04/16 03:21:26;;;;;;;5.03;3.50;;;-1.20;99.90;;;;;;5088148;28;20215;-74
2021/04/16 03:23:52;;;;;;;3.92;3.38;;;-1.20;99.90;;;;;;5088081;28;20620;-73
2021/04/16 03:26:20;;;;;;;4.22;3.83;;;-1.20;99.90;;;;;;5089074;28;20204;-73
2021/04/16 03:28:51;;;;;;;4.57;3.63;;;-1.20;99.90;;;;;;5088884;28;20227;-72
2021/04/16 03:31:17;;;;;;;3.53;3.22;;;-1.30;99.90;;;;;;5087920;28;20202;-73
2021/04/16 03:33:43;;;;;;;4.28;3.58;;;-1.30;99.90;;;;;;5087396;28;20199;-72
2021/04/16 03:36:09;;;;;;;3.80;3.35;;;-1.30;99.90;;;;;;5087622;28;20195;-73
2021/04/16 03:38:36;;;;;;;4.47;4.07;;;-1.30;99.90;;;;;;5088021;28;20230;-73
2021/04/16 03:41:02;;;;;;;5.22;4.15;;;-1.30;99.90;;;;;;5085613;28;20203;-73
2021/04/16 03:43:29;;;;;;;4.93;3.28;;;-1.30;99.90;;;;;;5088701;28;20253;-72
2021/04/16 03:45:55;;;;;;;6.28;3.63;;;-1.30;99.90;;;;;;5087837;28;20211;-72
2021/04/16 03:48:22;;;;;;;4.88;4.13;;;-1.40;99.90;;;;;;5088450;28;20261;-73
2021/04/16 03:50:48;;;;;;;5.20;4.00;;;-1.40;99.90;;;;;;5088125;28;20207;-72
2021/04/16 03:53:14;;;;;;;7.38;3.63;;;-1.40;99.90;;;;;;5089065;28;20199;-72
2021/04/16 03:55:41;;;;;;;7.22;4.22;;;-1.40;99.90;;;;;;5088367;28;20208;-72
2021/04/16 03:58:08;;;;;;;6.30;4.32;;;-1.40;99.90;;;;;;5088407;28;20223;-73
2021/04/16 04:00:38;;;;;;;6.95;4.05;;;-1.40;99.90;;;;;;5088223;28;20196;-73
2021/04/16 04:03:05;;;;;;;5.15;4.15;;;-1.50;99.90;;;;;;5088898;28;20524;-73
2021/04/16 04:05:32;;;;;;;4.40;4.00;;;-1.50;99.90;;;;;;5088384;28;20207;-73
2021/04/16 04:07:58;;;;;;;6.85;3.90;;;-1.50;99.90;;;;;;5087801;28;20224;-74
2021/04/16 04:10:25;;;;;;;5.80;3.83;;;-1.50;99.90;;;;;;5087610;28;20207;-73
2021/04/16 04:12:51;;;;;;;4.95;3.70;;;-1.50;99.90;;;;;;5088065;28;20196;-73
2021/04/16 04:15:20;;;;;;;6.57;4.40;;;-1.60;99.90;;;;;;5088949;28;20207;-72
2021/04/16 04:17:47;;;;;;;5.00;3.70;;;-1.50;99.90;;;;;;5089377;28;20207;-72
2021/04/16 04:20:16;;;;;;;5.68;4.25;;;-1.50;99.90;;;;;;5088827;28;20211;-72
2021/04/16 04:22:42;;;;;;;5.03;4.03;;;-1.40;99.90;;;;;;5089272;28;20709;-72
2021/04/16 04:25:10;;;;;;;6.25;3.85;;;-1.40;99.90;;;;;;5088990;28;20692;-72
2021/04/16 04:27:36;;;;;;;6.00;4.13;;;-1.50;99.90;;;;;;5088323;28;20264;-74
2021/04/16 04:30:04;;;;;;;6.20;4.85;;;-1.50;99.90;;;;;;5087179;28;20457;-71
2021/04/16 04:32:31;;;;;;;4.60;4.07;;;-1.50;99.90;;;;;;5087637;28;20674;-72
2021/04/16 04:34:58;;;;;;;6.60;3.80;;;-1.50;99.90;;;;;;5087342;28;20225;-72
2021/04/16 04:37:24;;;;;;;5.75;3.97;;;-1.40;99.90;;;;;;5091188;28;20208;-71
2021/04/16 04:39:50;;;;;;;5.35;4.03;;;-1.50;99.90;;;;;;5091667;28;20220;-72
2021/04/16 04:42:17;;;;;;;4.93;3.42;;;-1.50;99.90;;;;;;5091752;28;20227;-72
2021/04/16 04:44:43;;;;;;;4.80;3.90;;;-1.50;99.90;;;;;;5091638;28;20200;-72
2021/04/16 04:47:10;;;;;;;9.70;3.83;;;-1.50;99.90;;;;;;5091901;28;20199;-71
2021/04/16 04:49:36;;;;;;;5.32;3.95;;;-1.40;99.90;;;;;;5091471;28;20722;-71
2021/04/16 04:52:14;;;;;;;7.18;4.35;;;-1.40;99.90;;;;;;5091157;28;20208;-72
2021/04/16 04:57:16;;;;;;;6.70;4.20;;;-1.40;99.90;;;;;;5066426;28;20212;-71
2021/04/16 04:59:42;;;;;;;9.70;4.90;;;-1.40;99.90;;;;;;5071173;28;20626;-71
2021/04/16 05:02:09;;;;;;;6.00;4.30;;;-1.40;99.90;;;;;;5070062;28;20220;-70
2021/04/16 05:04:35;;;;;;;5.03;4.53;;;-1.40;99.90;;;;;;5071421;28;20219;-71
2021/04/16 05:07:02;;;;;;;6.88;4.28;;;-1.30;99.90;;;;;;5071383;28;20208;-71
2021/04/16 05:09:29;;;;;;;7.05;4.60;;;-1.30;99.90;;;;;;5071035;28;20711;-71
2021/04/16 05:11:56;;;;;;;8.82;3.70;;;-1.30;99.90;;;;;;5071327;28;20201;-71
2021/04/16 05:14:22;;;;;;;5.97;4.80;;;-1.30;99.90;;;;;;5071273;28;20209;-70
2021/04/16 05:16:48;;;;;;;9.52;4.22;;;-1.30;99.90;;;;;;5071543;28;20586;-72
2021/04/16 05:19:15;;;;;;;6.50;3.42;;;-1.20;99.90;;;;;;5070409;28;20244;-71
2021/04/16 05:21:41;;;;;;;4.10;3.70;;;-1.10;99.90;;;;;;5070169;28;20678;-71
2021/04/16 05:24:09;;;;;;;5.20;4.00;;;-1.00;99.90;;;;;;5071052;28;20661;-71
2021/04/16 05:26:38;;;;;;;5.40;4.07;;;-1.00;99.90;;;;;;5070515;28;20215;-70
2021/04/16 05:29:05;;;;;;;6.15;3.78;;;-1.00;99.90;;;;;;5070881;28;20273;-71
2021/04/16 05:31:31;;;;;;;6.55;4.50;;;-0.90;99.90;;;;;;5069998;28;20585;-71
2021/04/16 05:33:57;;;;;;;5.28;4.10;;;-0.80;99.90;;;;;;5071024;28;20209;-70
2021/04/16 05:36:24;;;;;;;4.63;3.70;;;-0.70;99.90;;;;;;5070573;28;20526;-71
2021/04/16 05:38:50;;;;;;;4.72;3.90;;;-0.70;99.90;;;;;;5070076;28;20251;-70
2021/04/16 05:41:16;;;;;;;5.00;4.00;;;-0.60;99.90;;;;;;5069798;28;20208;-70
2021/04/16 05:43:43;;;;;;;4.90;4.30;;;-0.50;99.90;;;;;;5070483;28;20252;-71
2021/04/16 05:46:10;;;;;;;5.20;4.15;;;-0.30;99.90;;;;;;5070355;28;20219;-71
2021/04/16 05:48:37;;;;;;;6.03;4.68;;;-0.20;99.90;;;;;;5069579;28;20225;-70
2021/04/16 05:51:04;;;;;;;5.90;4.20;;;-0.10;99.90;;;;;;5068869;28;20200;-70
2021/04/16 05:53:30;;;;;;;6.65;5.00;;;0.00;99.90;;;;;;5070250;28;20699;-70
2021/04/16 05:55:56;;;;;;;6.85;4.65;;;0.20;99.90;;;;;;5070543;28;20592;-70
2021/04/16 05:58:23;;;;;;;5.55;4.60;;;0.20;99.90;;;;;;5069999;28;20220;-70
2021/04/16 06:00:50;;;;;;;5.60;4.68;;;0.40;99.90;;;;;;5069661;28;20200;-71
2021/04/16 06:03:18;;;;;;;6.28;4.68;;;0.50;99.90;;;;;;5069448;28;20278;-71
2021/04/16 06:05:44;;;;;;;6.43;4.57;;;0.60;99.90;;;;;;5070696;28;20204;-71
2021/04/16 06:08:10;;;;;;;4.53;4.03;;;0.80;99.90;;;;;;5069719;28;20232;-71
2021/04/16 06:10:37;;;;;;;5.07;4.40;;;0.90;99.90;;;;;;5069951;28;20204;-71
2021/04/16 06:13:03;;;;;;;6.22;4.28;;;1.00;99.90;;;;;;5069750;28;20287;-71
2021/04/16 06:15:29;;;;;;;6.38;4.60;;;1.10;99.90;;;;;;5069407;28;20212;-70
2021/04/16 06:17:57;;;;;;;5.63;4.90;;;1.20;99.90;;;;;;5070111;28;20224;-70
2021/04/16 06:20:26;;;;;;;5.30;4.50;;;1.30;99.90;;;;;;5069001;28;20705;-70
2021/04/16 06:22:54;;;;;;;8.35;4.95;;;1.30;99.90;;;;;;5069821;28;20217;-70
2021/04/16 06:25:24;;;;;;;5.75;4.60;;;1.40;99.90;;;;;;5069312;28;20718;-69
2021/04/16 06:27:51;;;;;;;6.90;4.40;;;1.60;99.90;;;;;;5069060;28;20204;-70
2021/04/16 06:30:19;;;;;;;6.38;4.15;;;1.80;99.90;;;;;;5069147;28;20204;-71
2021/04/16 06:32:46;;;;;;;4.93;4.40;;;1.90;99.90;;;;;;5069630;28;20224;-71
2021/04/16 06:35:15;;;;;;;6.55;4.60;;;1.90;99.90;;;;;;5064277;28;20215;-70
2021/04/16 06:37:42;;;;;;;5.90;5.20;;;1.90;99.90;;;;;;5066576;28;20200;-70
2021/04/16 06:40:12;;;;;;;5.85;4.60;;;2.00;99.90;;;;;;5066320;28;20283;-68
2021/04/16 06:42:38;;;;;;;4.75;4.30;;;2.20;99.90;;;;;;5066177;28;20220;-70
2021/04/16 06:45:14;;;;;;;6.43;4.82;;;2.30;99.90;;;;;;5067258;28;20250;-69
2021/04/16 06:47:46;;;;;;;7.35;4.85;;;2.50;99.90;;;;;;5083633;28;20212;-69
2021/04/16 06:50:15;;;;;;;4.95;4.45;;;2.70;99.90;;;;;;5082712;28;20573;-70
2021/04/16 06:52:50;;;;;;;4.97;4.45;;;2.90;99.90;;;;;;5066362;28;20204;-71
2021/04/16 06:55:30;;;;;;;5.70;4.75;;;2.90;99.90;;;;;;5062330;28;20279;-71
2021/04/16 06:58:02;;;;;;;5.30;4.60;;;3.00;99.90;;;;;;5066031;28;20230;-71
2021/04/16 07:00:39;;;;;;;4.93;4.20;;;3.00;99.90;;;;;;5065463;28;20209;-70
2021/04/16 07:03:11;;;;;;;5.60;5.03;;;3.10;99.90;;;;;;5065489;28;20875;-70
2021/04/16 07:05:43;;;;;;;8.45;5.75;;;3.30;99.90;;;;;;5065756;28;20211;-70
2021/04/16 07:08:19;;;;;;;6.38;5.68;;;3.40;99.90;;;;;;5065716;28;21013;-71
2021/04/16 07:10:46;;;;;;;6.65;5.05;;;3.60;99.90;;;;;;5065263;28;20208;-70
2021/04/16 07:13:23;;;;;;;11.60;7.45;;;3.80;99.90;;;;;;5066996;28;20572;-71
2021/04/16 07:15:49;;;;;;;7.35;5.90;;;4.00;99.90;;;;;;5062711;28;20208;-71
2021/04/16 07:18:22;;;;;;;6.20;4.20;;;4.10;99.90;;;;;;5064863;28;20273;-71
2021/04/16 07:20:49;;;;;;;11.13;5.72;;;4.10;99.90;;;;;;5065345;28;20589;-71
2021/04/16 07:23:17;;;;;;;6.40;5.80;;;4.20;99.90;;;;;;5065677;28;20224;-70
2021/04/16 07:25:46;;;;;;;8.45;5.82;;;4.30;99.90;;;;;;5065368;28;20201;-72
2021/04/16 07:28:34;;;;;;;7.75;6.00;;;4.40;99.90;;;;;;5065326;28;20224;-71
2021/04/16 07:31:24;;;;;;;5.97;5.20;;;4.70;99.90;;;;;;5064762;28;20210;-70
2021/04/16 07:33:50;;;;;;;6.57;4.50;;;5.00;99.90;;;;;;5065556;28;20204;-71
2021/04/16 07:36:31;;;;;;;4.95;4.45;;;5.00;99.90;;;;;;5064986;28;20287;-70
2021/04/16 07:39:01;;;;;;;6.05;4.70;;;5.10;99.90;;;;;;5065572;28;20220;-71
2021/04/16 07:41:30;;;;;;;5.70;5.10;;;5.20;99.90;;;;;;5063972;28;20204;-71
2021/04/16 07:44:00;;;;;;;11.30;6.78;;;5.50;99.90;;;;;;5065466;28;20204;-70
2021/04/16 07:46:37;;;;;;;5.10;4.45;;;5.80;99.90;;;;;;5064684;28;20449;-71
2021/04/16 07:49:32;;;;;;;4.63;4.13;;;5.90;99.90;;;;;;5065511;28;20220;-70
2021/04/16 07:52:20;;;;;;;7.32;5.30;;;6.10;99.80;;;;;;5018043;28;20690;-72
2021/04/16 07:55:06;;;;;;;5.63;4.70;;;6.10;99.60;;;;;;5065005;28;20205;-70
2021/04/16 07:57:34;;;;;;;6.68;4.93;;;6.00;99.00;;;;;;5064865;28;20203;-71
2021/04/16 08:00:03;;;;;;;5.63;4.60;;;5.80;99.10;;;;;;5065733;28;20210;-71
2021/04/16 08:02:33;;;;;;;5.45;4.90;;;5.60;99.50;;;;;;5064990;28;20332;-69
2021/04/16 08:04:59;;;;;;;7.95;7.13;;;5.40;99.70;;;;;;5065677;28;20206;-71
2021/04/16 08:07:33;;;;;;;7.93;6.53;;;5.30;99.60;;;;;;5060952;28;20265;-70
2021/04/16 08:10:11;;;;;;;7.47;6.55;;;5.20;99.90;;;;;;5060271;28;20224;-70
2021/04/16 08:12:37;;;;;;;4.60;4.20;;;5.10;99.90;;;;;;5059353;28;20198;-70
2021/04/16 08:15:28;;;;;;;5.82;5.25;;;4.90;99.90;;;;;;5064791;28;20200;-71
2021/04/16 08:17:54;;;;;;;5.00;4.50;;;4.90;99.90;;;;;;5046201;28;20277;-71
2021/04/16 08:20:28;;;;;;;5.43;4.53;;;5.00;99.90;;;;;;5061469;28;20689;-71
2021/04/16 08:22:57;;;;;;;5.80;5.30;;;5.10;99.90;;;;;;5060158;28;20228;-71
2021/04/16 08:25:34;;;;;;;5.82;5.22;;;5.10;99.90;;;;;;5060791;28;20200;-70
2021/04/16 08:28:05;;;;;;;6.88;5.30;;;5.10;99.90;;;;;;5060865;28;20230;-71
2021/04/16 08:30:44;;;;;;;5.45;4.35;;;5.00;99.90;;;;;;5060038;28;20580;-71
2021/04/16 08:33:19;;;;;;;6.20;5.60;;;4.90;99.90;;;;;;5060832;28;20604;-69
2021/04/16 08:35:53;;;;;;;5.72;5.20;;;4.90;99.90;;;;;;5061328;28;20203;-70
2021/04/16 08:38:23;;;;;;;6.03;4.78;;;4.80;99.90;;;;;;5058232;28;20574;-70
2021/04/16 08:40:53;;;;;;;5.38;4.90;;;4.80;99.90;;;;;;5060300;28;20292;-70
2021/04/16 08:43:29;;;;;;;6.13;4.85;;;4.70;99.90;;;;;;5060449;28;20224;-70
2021/04/16 08:45:56;;;;;;;10.50;6.50;;;4.80;99.90;;;;;;5061089;28;20610;-69
2021/04/16 08:48:28;;;;;;;5.60;5.00;;;4.90;99.90;;;;;;5060877;28;20290;-69
2021/04/16 08:50:57;;;;;;;4.70;4.30;;;4.90;99.90;;;;;;5060821;28;20197;-71
2021/04/16 08:53:25;;;;;;;6.72;5.35;;;5.10;99.90;;;;;;5060237;28;20204;-70
2021/04/16 08:55:52;;;;;;;10.77;4.65;;;5.00;99.90;;;;;;5061341;28;20216;-72
2021/04/16 08:58:26;;;;;;;6.22;5.43;;;5.00;99.90;;;;;;5060314;28;20224;-71
2021/04/16 09:00:55;;;;;;;5.72;5.20;;;5.00;99.90;;;;;;5060391;28;20197;-71
2021/04/16 09:03:25;;;;;;;5.63;5.00;;;5.00;99.90;;;;;;5060762;28;20227;-71
2021/04/16 09:05:57;;;;;;;6.68;4.90;;;5.10;99.90;;;;;;5061611;28;21773;-72
2021/04/16 09:08:34;;;;;;;5.53;5.03;;;5.20;99.90;;;;;;5060434;28;20925;-70
2021/04/16 09:11:02;;;;;;;6.15;5.55;;;5.30;99.90;;;;;;5057281;28;20204;-70
2021/04/16 09:13:56;;;;;;;6.05;5.35;;;5.50;99.90;;;;;;5060856;28;20745;-70
2021/04/16 09:16:55;;;;;;;6.25;4.40;;;5.60;99.30;;;;;;5060664;28;20766;-71
2021/04/16 09:19:43;;;;;;;6.03;5.53;;;5.70;99.00;;;;;;5060612;28;20239;-71
2021/04/16 09:22:48;;;;;;;5.75;4.97;;;6.10;99.00;;;;;;5059548;28;20219;-71
2021/04/16 09:25:49;;;;;;;5.03;4.63;;;6.50;98.60;;;;;;5064289;28;20200;-72
2021/04/16 09:28:35;;;;;;;6.30;5.05;;;6.70;97.50;;;;;;5063978;28;20969;-71
2021/04/16 09:31:04;;;;;;;5.10;4.60;;;6.70;97.80;;;;;;5064332;28;20208;-70
2021/04/16 09:33:44;;;;;;;5.65;4.00;;;7.00;98.20;;;;;;5064093;28;20250;-71
2021/04/16 09:36:11;;;;;;;4.25;3.80;;;8.20;95.90;;;;;;5064262;28;20253;-71
2021/04/16 09:38:56;;;;;;;4.70;4.30;;;9.00;93.70;;;;;;5065660;28;20251;-69
2021/04/16 09:41:36;;;;;;;4.25;3.85;;;9.10;93.00;;;;;;5062984;28;20231;-70
2021/04/16 09:44:37;;;;;;;4.60;3.67;;;9.00;92.00;;;;;;5065578;28;20623;-69
2021/04/16 09:47:04;;;;;;;3.90;3.60;;;9.00;92.80;;;;;;5064614;28;20271;-70
2021/04/16 09:49:38;;;;;;;3.78;3.40;;;9.30;91.60;;;;;;5064823;28;20263;-71
2021/04/16 09:52:38;;;;;;;3.83;3.53;;;9.20;91.40;;;;;;5063669;28;20216;-71
2021/04/16 09:55:38;;;;;;;3.83;3.42;;;9.10;91.10;;;;;;5061482;28;20612;-69
2021/04/16 09:58:05;;;;;;;5.10;4.20;;;8.80;91.40;;;;;;5063896;28;20228;-69
2021/04/16 10:01:05;;;;;;;5.60;5.05;;;8.80;91.30;;;;;;5063479;28;20235;-70
2021/04/16 10:03:50;;;;;;;4.30;3.90;;;8.70;91.20;;;;;;5061186;28;20224;-72
2021/04/16 10:06:38;;;;;;;4.25;3.85;;;8.70;91.20;;;;;;5063060;28;20279;-70
2021/04/16 10:09:23;;;;;;;3.65;3.28;;;8.40;90.50;;;;;;5061732;28;20847;-70
2021/04/16 10:11:53;;;;;;;3.70;3.40;;;8.30;91.20;;;;;;5060147;28;20227;-70
2021/04/16 10:14:27;;;;;;;5.22;3.60;;;8.70;90.70;;;;;;5062965;28;20204;-70
2021/04/16 10:16:56;;;;;;;3.95;3.50;;;8.60;90.70;;;;;;5063603;28;20209;-70
2021/04/16 10:19:25;;;;;;;5.05;3.92;;;8.60;90.90;;;;;;5062215;28;20231;-71
2021/04/16 10:21:52;;;;;;;4.25;3.85;;;8.70;91.20;;;;;;5062265;28;20204;-70
2021/04/16 12:39:54;;;;;;;5.22;3.70;;;6.50;92.40;;;;;;5062631;28;20697;-71
2021/04/16 12:42:21;;;;;;;4.07;3.67;;;6.40;92.40;;;;;;5061564;28;20242;-71
2021/04/16 12:44:49;;;;;;;3.50;3.20;;;6.40;92.70;;;;;;5062058;28;20668;-70
2021/04/16 12:47:20;;;;;;;4.30;4.00;;;6.40;92.00;;;;;;5061869;28;20247;-71
2021/04/16 12:49:46;;;;;;;4.10;3.70;;;6.50;92.30;;;;;;5062526;28;20261;-71
2021/04/16 12:52:14;;;;;;;4.53;3.40;;;6.40;92.10;;;;;;5060819;28;20211;-68
2021/04/16 12:54:43;;;;;;;4.40;3.75;;;6.40;92.00;;;;;;5062187;28;20200;-69
2021/04/16 12:57:16;;;;;;;4.53;3.88;;;6.40;92.10;;;;;;5062835;28;20561;-69
2021/04/16 12:59:42;;;;;;;4.30;4.00;;;6.40;92.50;;;;;;5063718;28;20581;-71
2021/04/16 13:02:22;;;;;;;5.28;4.00;;;6.40;92.40;;;;;;5064562;28;20710;-72
2021/04/16 13:04:49;;;;;;;4.35;3.60;;;6.40;92.50;;;;;;5065624;28;20204;-73
2021/04/16 13:07:15;;;;;;;4.53;3.95;;;6.50;92.20;;;;;;5066031;28;20202;-71
2021/04/16 13:09:41;;;;;;;4.68;4.35;;;6.40;92.20;;;;;;5065948;28;20726;-71
2021/04/16 13:12:08;;;;;;;4.50;4.00;;;6.60;92.20;;;;;;5064658;28;20291;-72
2021/04/16 13:14:35;;;;;;;4.28;3.88;;;6.60;91.90;;;;;;5065938;28;20239;-73
2021/04/16 13:17:01;;;;;;;4.82;3.70;;;6.70;92.10;;;;;;5065563;28;20256;-73
2021/04/16 13:19:32;;;;;;;4.68;3.85;;;6.60;92.30;;;;;;5064636;28;20250;-73
2021/04/16 13:22:03;;;;;;;4.60;4.20;;;6.70;92.20;;;;;;5065331;28;20632;-73
2021/04/16 13:24:31;;;;;;;5.03;4.30;;;6.90;92.20;;;;;;5064940;28;20694;-73
2021/04/16 13:26:57;;;;;;;4.60;4.20;;;7.10;92.30;;;;;;5066128;28;20200;-73
2021/04/16 13:29:24;;;;;;;8.23;5.70;;;7.20;91.80;;;;;;5066782;28;20225;-72
2021/04/16 13:31:50;;;;;;;4.10;3.80;;;7.30;91.90;;;;;;5065588;28;20597;-73
2021/04/16 13:34:17;;;;;;;7.03;6.32;;;7.20;91.50;;;;;;5064615;28;20208;-72
2021/04/16 13:36:44;;;;;;;5.40;4.90;;;7.20;91.90;;;;;;5065493;28;20335;-72
2021/04/16 13:39:11;;;;;;;5.13;4.50;;;7.30;91.90;;;;;;5064920;28;20284;-72
2021/04/16 13:41:37;;;;;;;6.57;4.15;;;7.30;91.60;;;;;;5064804;28;20625;-72
2021/04/16 13:44:04;;;;;;;4.40;4.00;;;7.40;92.00;;;;;;5064340;28;20247;-72
2021/04/16 13:46:34;;;;;;;4.25;3.95;;;7.30;91.80;;;;;;5067394;28;20212;-73
2021/04/16 13:49:01;;;;;;;5.47;4.90;;;7.30;91.80;;;;;;5066023;28;20216;-72
2021/04/16 13:51:28;;;;;;;4.88;4.47;;;7.20;92.10;;;;;;5065538;28;20204;-73
2021/04/16 13:53:55;;;;;;;4.30;4.00;;;7.20;91.80;;;;;;5065385;28;20203;-72
2021/04/16 13:56:21;;;;;;;4.55;3.55;;;7.10;91.80;;;;;;5060463;28;20216;-73
2021/04/16 13:58:48;;;;;;;4.97;4.05;;;7.10;91.90;;;;;;5067257;28;20220;-73
2021/04/16 14:01:14;;;;;;;4.50;3.80;;;7.20;91.90;;;;;;5066665;28;20200;-73
2021/04/16 14:03:42;;;;;;;4.00;3.60;;;7.20;92.00;;;;;;5066584;28;20251;-73
2021/04/16 14:06:13;;;;;;;6.80;4.82;;;7.20;91.50;;;;;;5067583;28;20200;-73
2021/04/16 14:08:42;;;;;;;3.42;3.13;;;7.30;91.80;;;;;;5066169;28;20301;-73
2021/04/16 14:11:09;;;;;;;3.40;3.10;;;7.40;90.90;;;;;;5066078;28;20200;-73
2021/04/16 14:13:36;;;;;;;3.90;3.15;;;7.40;91.30;;;;;;5067376;28;20192;-73
2021/04/16 14:16:05;;;;;;;3.83;3.50;;;7.40;91.40;;;;;;5067200;28;20669;-73
2021/04/16 14:18:34;;;;;;;5.10;3.67;;;7.50;90.90;;;;;;5069470;28;20235;-73
2021/04/16 14:21:02;;;;;;;4.38;3.97;;;7.50;91.50;;;;;;5067486;28;20213;-73
2021/04/16 14:23:28;;;;;;;5.07;3.65;;;7.70;91.10;;;;;;5067030;28;20224;-73
2021/04/16 14:25:55;;;;;;;3.50;3.20;;;7.80;91.00;;;;;;5067580;28;20208;-72
2021/04/16 14:28:23;;;;;;;3.28;2.97;;;7.80;90.10;;;;;;5066482;28;20886;-72
2021/04/16 14:30:50;;;;;;;3.30;3.00;;;7.80;90.20;;;;;;5067705;28;20213;-75
2021/04/16 14:33:21;;;;;;;3.70;3.30;;;7.70;89.90;;;;;;5066621;28;20200;-72
2021/04/16 14:35:47;;;;;;;4.72;3.90;;;7.60;89.40;;;;;;5067006;28;20738;-71
2021/04/16 14:38:14;;;;;;;2.83;2.63;;;7.60;90.10;;;;;;5066344;28;20231;-71
2021/04/16 14:40:40;;;;;;;3.85;3.55;;;7.50;89.90;;;;;;5065613;28;20580;-71
2021/04/16 14:43:08;;;;;;;3.72;3.40;;;7.40;90.30;;;;;;5066551;28;20591;-72
2021/04/16 14:45:39;;;;;;;3.80;3.40;;;7.20;90.50;;;;;;5066365;28;20200;-72
2021/04/16 14:48:07;;;;;;;3.97;3.58;;;7.10;91.00;;;;;;5065936;28;20823;-72
2021/04/16 14:50:33;;;;;;;3.80;3.40;;;7.10;90.90;;;;;;5065831;28;20671;-72
2021/04/16 14:53:02;;;;;;;3.28;2.97;;;7.00;90.40;;;;;;5066371;28;20204;-73
2021/04/16 14:55:31;;;;;;;2.92;2.70;;;6.90;90.90;;;;;;5065802;28;20208;-73
2021/04/16 14:57:59;;;;;;;3.28;2.95;;;6.90;90.90;;;;;;5065482;28;20228;-72
2021/04/16 15:00:28;;;;;;;4.65;3.08;;;6.90;90.40;;;;;;5065425;28;20208;-72
2021/04/16 15:02:55;;;;;;;3.00;2.70;;;6.80;90.60;;;;;;5066196;28;20220;-72
2021/04/16 15:05:22;;;;;;;2.80;2.60;;;6.90;90.50;;;;;;5065648;28;20207;-71
2021/04/16 15:07:50;;;;;;;4.90;3.25;;;6.90;90.50;;;;;;5065878;28;20695;-71
2021/04/16 15:10:25;;;;;;;3.92;3.50;;;6.90;90.20;;;;;;5064623;28;20200;-73
2021/04/16 15:12:52;;;;;;;3.70;3.35;;;6.80;89.60;;;;;;5066570;28;20912;-73
2021/04/16 15:15:36;;;;;;;3.42;3.13;;;6.90;90.20;;;;;;5065925;28;20201;-72
2021/04/16 15:18:05;;;;;;;3.00;2.63;;;7.00;90.60;;;;;;5066127;28;20228;-72
2021/04/16 15:20:32;;;;;;;2.88;2.58;;;7.00;90.40;;;;;;5065809;28;20293;-72
2021/04/16 15:23:00;;;;;;;2.92;2.67;;;7.10;89.90;;;;;;5066015;28;20224;-73
2021/04/16 15:25:26;;;;;;;3.42;2.70;;;7.10;90.00;;;;;;5065118;28;20208;-73